createdAt,value
2023-08-12T00:01:19.091Z,53.00
2023-08-12T00:04:43.489Z,53.00
2023-08-12T00:08:08.723Z,53.00
2023-08-12T00:11:36.762Z,53.10
2023-08-12T00:15:01.283Z,53.40
2023-08-12T00:18:27.941Z,53.40
2023-08-12T00:21:53.851Z,53.60
2023-08-12T00:25:18.360Z,53.80
2023-08-12T00:28:43.498Z,53.80
2023-08-12T00:32:07.799Z,53.90
2023-08-12T00:35:31.956Z,54.00
2023-08-12T00:38:55.475Z,54.10
2023-08-12T00:42:20.962Z,54.00
2023-08-12T00:45:47.204Z,54.30
2023-08-12T00:49:11.469Z,54.60
2023-08-12T00:52:35.062Z,54.50
2023-08-12T00:55:58.955Z,54.60
2023-08-12T00:59:24.066Z,54.70
2023-08-12T01:02:51.076Z,54.70
2023-08-12T01:06:15.236Z,54.90
2023-08-12T01:09:39.374Z,54.70
2023-08-12T01:13:21.993Z,54.80
2023-08-12T01:16:51.733Z,55.20
2023-08-12T01:20:17.134Z,55.00
2023-08-12T01:23:44.156Z,54.90
2023-08-12T01:27:10.663Z,55.10
2023-08-12T01:30:38.090Z,55.20
2023-08-12T01:34:10.430Z,55.30
2023-08-12T01:37:39.363Z,55.40
2023-08-12T01:41:04.604Z,55.40
2023-08-12T01:44:28.881Z,55.50
2023-08-12T01:47:52.532Z,55.40
2023-08-12T01:51:16.202Z,55.40
2023-08-12T01:54:39.781Z,55.50
2023-08-12T01:58:05.764Z,55.60
2023-08-12T02:01:30.001Z,55.80
2023-08-12T02:04:53.660Z,55.80
2023-08-12T02:08:17.258Z,55.90
2023-08-12T02:11:40.763Z,56.00
2023-08-12T02:15:07.919Z,56.30
2023-08-12T02:18:31.429Z,56.50
2023-08-12T02:21:55.386Z,56.60
2023-08-12T02:25:19.036Z,56.60
2023-08-12T02:28:42.720Z,56.80
2023-08-12T02:32:08.372Z,57.10
2023-08-12T02:35:32.136Z,57.10
2023-08-12T02:38:55.670Z,57.00
2023-08-12T02:42:19.716Z,57.10
2023-08-12T02:45:43.357Z,57.10
2023-08-12T02:49:08.738Z,57.10
2023-08-12T02:52:32.389Z,57.20
2023-08-12T02:55:55.994Z,57.30
2023-08-12T02:59:19.605Z,57.20
2023-08-12T03:02:45.105Z,57.20
2023-08-12T03:06:10.532Z,57.50
2023-08-12T03:09:34.663Z,57.90
2023-08-12T03:12:58.815Z,57.30
2023-08-12T03:16:22.921Z,57.30
2023-08-12T03:19:50.357Z,57.50
2023-08-12T03:23:15.439Z,57.50
2023-08-12T03:26:40.570Z,57.60
2023-08-12T03:30:05.110Z,57.60
2023-08-12T03:33:29.686Z,57.70
2023-08-12T03:36:53.520Z,57.70
2023-08-12T03:40:19.233Z,57.90
2023-08-12T03:43:43.878Z,56.80
2023-08-12T03:47:08.164Z,57.90
2023-08-12T03:50:36.077Z,57.90
2023-08-12T03:54:00.260Z,58.10
2023-08-12T03:57:26.655Z,58.10
2023-08-12T04:00:50.335Z,58.20
2023-08-12T04:04:14.848Z,58.30
2023-08-12T04:07:39.179Z,58.30
2023-08-12T04:11:03.161Z,58.40
2023-08-12T04:14:28.692Z,58.40
2023-08-12T04:17:54.366Z,58.50
2023-08-12T04:21:18.297Z,58.50
2023-08-12T04:24:42.216Z,58.40
2023-08-12T04:28:06.892Z,58.40
2023-08-12T04:31:33.128Z,58.50
2023-08-12T04:34:56.848Z,58.50
2023-08-12T04:38:21.770Z,58.50
2023-08-12T04:41:47.622Z,58.50
2023-08-12T04:45:12.587Z,58.50
2023-08-12T04:48:37.776Z,58.60
2023-08-12T04:52:01.514Z,58.70
2023-08-12T04:55:27.244Z,58.80
2023-08-12T04:58:50.786Z,58.90
2023-08-12T05:02:14.477Z,58.90
2023-08-12T05:05:39.865Z,58.90
2023-08-12T05:09:05.130Z,59.00
2023-08-12T05:12:29.181Z,59.00
2023-08-12T05:15:54.017Z,59.20
2023-08-12T05:19:18.189Z,59.20
2023-08-12T05:22:43.224Z,59.30
2023-08-12T05:26:06.847Z,59.40
2023-08-12T05:29:30.740Z,59.50
2023-08-12T05:32:54.576Z,59.60
2023-08-12T05:36:18.638Z,59.70
2023-08-12T05:39:43.765Z,59.60
2023-08-12T05:43:07.375Z,59.70
2023-08-12T05:46:30.860Z,59.70
2023-08-12T05:49:54.432Z,59.90
2023-08-12T05:53:17.978Z,60.10
2023-08-12T05:56:43.652Z,60.00
2023-08-12T06:00:09.176Z,60.20
2023-08-12T06:03:35.337Z,60.50
2023-08-12T06:06:58.898Z,60.70
2023-08-12T06:10:22.923Z,61.00
2023-08-12T06:13:47.893Z,61.10
2023-08-12T06:17:11.497Z,61.20
2023-08-12T06:20:35.152Z,61.10
2023-08-12T06:23:58.846Z,61.00
2023-08-12T06:27:22.452Z,61.20
2023-08-12T06:30:49.403Z,61.00
2023-08-12T06:34:12.916Z,61.20
2023-08-12T06:37:36.554Z,61.00
2023-08-12T06:41:00.129Z,61.10
2023-08-12T06:44:23.848Z,61.20
2023-08-12T06:47:48.761Z,61.60
2023-08-12T06:51:12.404Z,62.10
2023-08-12T06:54:36.056Z,62.10
2023-08-12T06:57:59.624Z,63.40
2023-08-12T07:01:23.209Z,64.70
2023-08-12T07:04:48.573Z,67.70
2023-08-12T07:08:12.240Z,69.20
2023-08-12T07:11:35.999Z,67.40
2023-08-12T07:14:59.903Z,63.70
2023-08-12T07:18:24.670Z,64.00
2023-08-12T07:21:49.797Z,65.20
2023-08-12T07:25:13.624Z,65.30
2023-08-12T07:28:37.798Z,63.10
2023-08-12T07:32:01.419Z,60.70
2023-08-12T07:35:25.072Z,59.70
2023-08-12T07:38:50.110Z,59.40
2023-08-12T07:42:13.898Z,58.20
2023-08-12T07:45:37.683Z,57.70
2023-08-12T07:49:01.267Z,56.50
2023-08-12T07:52:24.923Z,55.90
2023-08-12T07:55:49.849Z,55.10
2023-08-12T07:59:13.913Z,53.70
2023-08-12T08:02:37.527Z,52.90
2023-08-12T08:06:01.098Z,52.00
2023-08-12T08:09:24.702Z,51.10
2023-08-12T08:12:49.606Z,50.40
2023-08-12T08:16:13.851Z,48.40
2023-08-12T08:19:37.583Z,47.60
2023-08-12T08:23:01.171Z,46.80
2023-08-12T08:26:25.808Z,46.90
2023-08-12T08:29:50.689Z,46.70
2023-08-12T08:33:15.272Z,44.80
2023-08-12T08:36:38.852Z,43.30
2023-08-12T08:40:02.444Z,43.60
2023-08-12T08:43:34.759Z,44.30
2023-08-12T08:47:01.220Z,44.70
2023-08-12T08:50:25.988Z,44.10
2023-08-12T08:53:52.431Z,43.40
2023-08-12T08:57:18.843Z,42.30
2023-08-12T09:00:46.650Z,42.90
2023-08-12T09:04:13.197Z,43.00
2023-08-12T09:07:37.091Z,43.00
2023-08-12T09:11:02.498Z,42.70
2023-08-12T09:14:26.593Z,41.90
2023-08-12T09:17:50.266Z,41.60
2023-08-12T09:21:17.312Z,41.20
2023-08-12T09:24:40.981Z,40.40
2023-08-12T09:28:05.861Z,39.40
2023-08-12T09:31:33.621Z,39.40
2023-08-12T09:34:58.367Z,38.70
2023-08-12T09:38:24.067Z,39.00
2023-08-12T09:41:47.913Z,38.80
2023-08-12T09:45:14.130Z,39.40
2023-08-12T09:48:38.231Z,39.40
2023-08-12T09:52:03.954Z,39.00
2023-08-12T09:55:29.952Z,38.60
2023-08-12T09:58:57.397Z,38.20
2023-08-12T10:02:22.800Z,36.30
2023-08-12T10:05:48.182Z,35.00
2023-08-12T10:09:13.358Z,33.90
2023-08-12T10:12:39.501Z,33.80
2023-08-12T10:16:04.286Z,34.00
2023-08-12T10:19:29.072Z,34.50
2023-08-12T10:22:54.282Z,35.20
2023-08-12T10:26:19.580Z,35.80
2023-08-12T10:29:48.003Z,36.20
2023-08-12T10:33:12.887Z,37.00
2023-08-12T10:37:00.315Z,37.50
2023-08-12T10:40:26.326Z,38.20
2023-08-12T10:44:01.148Z,39.00
2023-08-12T10:47:26.624Z,39.40
2023-08-12T10:50:55.951Z,40.00
2023-08-12T10:54:24.578Z,40.00
2023-08-12T10:57:48.467Z,39.70
2023-08-12T11:01:19.521Z,39.60
2023-08-12T11:04:44.849Z,39.60
2023-08-12T11:08:08.738Z,39.70
2023-08-12T11:11:32.411Z,40.40
2023-08-12T11:14:56.480Z,40.50
2023-08-12T11:18:23.190Z,40.50
2023-08-12T11:21:49.852Z,39.20
2023-08-12T11:25:17.640Z,39.70
2023-08-12T11:28:42.813Z,40.70
2023-08-12T11:32:08.502Z,40.30
2023-08-12T11:35:33.099Z,39.10
2023-08-12T11:38:59.142Z,38.80
2023-08-12T11:42:22.948Z,38.40
2023-08-12T11:45:47.283Z,38.50
2023-08-12T11:49:10.905Z,39.00
2023-08-12T11:52:35.316Z,39.50
2023-08-12T11:56:01.359Z,39.40
2023-08-12T11:59:25.426Z,39.40
2023-08-12T12:02:51.279Z,38.90
2023-08-12T12:06:15.538Z,37.30
2023-08-12T12:09:39.209Z,36.40
2023-08-12T12:13:06.059Z,35.70
2023-08-12T12:16:42.492Z,36.40
2023-08-12T12:20:11.714Z,37.40
2023-08-12T12:23:36.882Z,37.20
2023-08-12T12:27:01.539Z,38.60
2023-08-12T12:30:27.430Z,41.20
2023-08-12T12:33:51.024Z,42.60
2023-08-12T12:37:15.068Z,43.00
2023-08-12T12:40:39.516Z,43.90
2023-08-12T12:44:03.793Z,45.30
2023-08-12T12:47:29.036Z,49.50
2023-08-12T12:50:52.918Z,52.70
2023-08-12T12:54:16.534Z,53.40
2023-08-12T12:57:40.585Z,55.20
2023-08-12T13:01:05.457Z,56.70
2023-08-12T13:04:30.455Z,57.60
2023-08-12T13:07:54.496Z,58.50
2023-08-12T13:11:18.347Z,59.80
2023-08-12T13:14:42.137Z,61.50
2023-08-12T13:18:06.501Z,63.20
2023-08-12T13:21:31.556Z,64.10
2023-08-12T13:24:55.245Z,64.50
2023-08-12T13:28:19.780Z,64.70
2023-08-12T13:31:44.202Z,64.70
2023-08-12T13:35:10.486Z,64.90
2023-08-12T13:38:35.901Z,65.40
2023-08-12T13:41:59.956Z,66.30
2023-08-12T13:45:24.591Z,66.70
2023-08-12T13:48:48.293Z,67.60
2023-08-12T13:52:12.343Z,68.50
2023-08-12T13:55:37.760Z,70.00
2023-08-12T13:59:01.360Z,71.60
2023-08-12T14:02:25.413Z,73.40
2023-08-12T14:05:49.244Z,74.70
2023-08-12T14:09:15.007Z,74.60
2023-08-12T14:12:40.092Z,73.10
2023-08-12T14:16:03.836Z,71.00
2023-08-12T14:19:27.972Z,69.50
2023-08-12T14:22:51.626Z,67.70
2023-08-12T14:26:15.460Z,66.20
2023-08-12T14:29:40.553Z,64.90
2023-08-12T14:33:04.274Z,65.00
2023-08-12T14:36:27.877Z,63.70
2023-08-12T14:39:51.662Z,63.10
2023-08-12T14:43:15.300Z,62.50
2023-08-12T14:46:40.708Z,62.40
2023-08-12T14:50:05.297Z,62.10
2023-08-12T14:53:30.626Z,62.20
2023-08-12T14:56:54.330Z,61.30
2023-08-12T15:00:18.283Z,61.00
2023-08-12T15:03:43.207Z,60.40
2023-08-12T15:07:07.248Z,60.30
2023-08-12T15:10:31.046Z,60.10
2023-08-12T15:13:54.730Z,59.60
2023-08-12T15:17:18.387Z,59.40
2023-08-12T15:20:43.489Z,59.00
2023-08-12T15:24:08.310Z,58.50
2023-08-12T15:27:32.514Z,58.30
2023-08-12T15:30:56.315Z,58.00
2023-08-12T15:34:20.004Z,57.70
2023-08-12T15:37:45.172Z,57.60
2023-08-12T15:41:16.306Z,57.40
2023-08-12T15:44:42.642Z,57.20
2023-08-12T15:48:08.660Z,57.20
2023-08-12T15:51:32.360Z,57.10
2023-08-12T15:54:57.705Z,57.10
2023-08-12T15:58:21.412Z,57.10
2023-08-12T16:01:45.131Z,57.10
2023-08-12T16:05:09.829Z,57.20
2023-08-12T16:08:33.508Z,57.30
2023-08-12T16:11:58.756Z,57.50
2023-08-12T16:15:22.635Z,58.00
2023-08-12T16:18:46.274Z,58.20
2023-08-12T16:22:10.427Z,58.40
2023-08-12T16:25:34.789Z,58.40
2023-08-12T16:28:59.896Z,60.00
2023-08-12T16:32:23.483Z,62.00
2023-08-12T16:35:48.802Z,63.50
2023-08-12T16:39:12.540Z,65.00
2023-08-12T16:42:36.430Z,66.20
2023-08-12T16:46:01.663Z,67.30
2023-08-12T16:49:25.857Z,68.20
2023-08-12T16:52:49.426Z,69.20
2023-08-12T16:56:13.057Z,70.00
2023-08-12T16:59:37.084Z,70.80
2023-08-12T17:03:02.164Z,71.20
2023-08-12T17:06:25.839Z,71.50
2023-08-12T17:09:49.461Z,72.00
2023-08-12T17:13:13.056Z,72.70
2023-08-12T17:16:37.962Z,71.70
2023-08-12T17:20:04.567Z,70.90
2023-08-12T17:23:28.334Z,70.70
2023-08-12T17:26:52.913Z,70.80
2023-08-12T17:30:16.877Z,71.00
2023-08-12T17:33:41.446Z,70.70
2023-08-12T17:37:06.803Z,70.40
2023-08-12T17:40:30.457Z,69.90
2023-08-12T17:43:54.044Z,69.30
2023-08-12T17:47:17.980Z,68.90
2023-08-12T17:50:41.699Z,68.80
2023-08-12T17:54:07.056Z,68.50
2023-08-12T17:57:30.643Z,68.80
2023-08-12T18:00:54.914Z,68.20
2023-08-12T18:04:18.992Z,68.30
2023-08-12T18:07:43.392Z,68.50
2023-08-12T18:11:08.452Z,68.50
2023-08-12T18:14:32.340Z,68.40
2023-08-12T18:17:56.054Z,68.20
2023-08-12T18:21:19.686Z,68.10
2023-08-12T18:24:43.311Z,67.90
2023-08-12T18:28:09.080Z,68.00
2023-08-12T18:31:32.774Z,68.00
2023-08-12T18:34:57.195Z,67.80
2023-08-12T18:38:20.971Z,67.70
2023-08-12T18:41:44.660Z,67.80
2023-08-12T18:45:10.470Z,67.70
2023-08-12T18:48:34.064Z,67.90
2023-08-12T18:51:57.672Z,67.80
2023-08-12T18:55:22.340Z,67.90
2023-08-12T18:58:46.034Z,68.00
2023-08-12T19:02:10.994Z,68.20
2023-08-12T19:05:34.534Z,68.40
2023-08-12T19:08:59.213Z,68.40
2023-08-12T19:12:23.037Z,68.50
2023-08-12T19:15:46.712Z,68.50
2023-08-12T19:19:12.506Z,68.50
2023-08-12T19:22:36.069Z,68.70
2023-08-12T19:25:59.983Z,68.50
2023-08-12T19:29:23.574Z,68.50
2023-08-12T19:32:51.918Z,68.50
2023-08-12T19:36:16.896Z,68.70
2023-08-12T19:39:40.662Z,68.70
2023-08-12T19:43:04.350Z,68.80
2023-08-12T19:46:28.883Z,69.00
2023-08-12T19:49:52.572Z,69.80
2023-08-12T19:53:17.665Z,70.50
2023-08-12T19:56:41.378Z,71.20
2023-08-12T20:00:06.465Z,71.70
2023-08-12T20:03:35.290Z,72.10
2023-08-12T20:06:59.244Z,71.90
2023-08-12T20:10:24.777Z,71.60
2023-08-12T20:13:48.711Z,71.60
2023-08-12T20:17:12.193Z,71.40
2023-08-12T20:20:35.798Z,71.30
2023-08-12T20:23:59.682Z,71.20
2023-08-12T20:27:24.644Z,71.30
2023-08-12T20:30:48.526Z,71.50
2023-08-12T20:34:12.180Z,71.60
2023-08-12T20:37:36.797Z,71.70
2023-08-12T20:41:01.005Z,71.80
2023-08-12T20:44:26.032Z,71.90
2023-08-12T20:47:49.892Z,71.90
2023-08-12T20:51:13.573Z,71.80
2023-08-12T20:54:37.209Z,71.90
2023-08-12T20:58:00.803Z,71.80
2023-08-12T21:01:26.441Z,71.80
2023-08-12T21:04:50.023Z,71.90
2023-08-12T21:08:13.708Z,71.80
2023-08-12T21:11:37.905Z,72.00
2023-08-12T21:15:01.515Z,71.80
2023-08-12T21:18:26.467Z,71.70
2023-08-12T21:21:50.155Z,71.70
2023-08-12T21:25:13.656Z,71.60
2023-08-12T21:28:37.270Z,71.70
2023-08-12T21:32:01.451Z,71.80
2023-08-12T21:35:26.670Z,71.70
2023-08-12T21:38:51.447Z,72.10
2023-08-12T21:42:15.385Z,72.20
2023-08-12T21:45:39.702Z,72.10
2023-08-12T21:49:03.399Z,72.10
2023-08-12T21:52:29.245Z,71.90
2023-08-12T21:55:52.835Z,72.00
2023-08-12T21:59:16.684Z,71.80
2023-08-12T22:02:40.612Z,71.60
2023-08-12T22:06:04.802Z,71.50
2023-08-12T22:09:34.511Z,71.30
2023-08-12T22:12:58.676Z,71.50
2023-08-12T22:16:22.194Z,71.50
2023-08-12T22:19:48.608Z,71.30
2023-08-12T22:23:12.451Z,71.50
2023-08-12T22:26:37.705Z,71.60
2023-08-12T22:30:01.166Z,71.60
2023-08-12T22:33:25.138Z,71.60
2023-08-12T22:36:48.785Z,71.80
2023-08-12T22:40:12.430Z,72.00
2023-08-12T22:43:37.259Z,72.90
2023-08-12T22:47:00.753Z,72.40
2023-08-12T22:50:24.346Z,72.30
2023-08-12T22:53:47.840Z,72.10
2023-08-12T22:57:11.318Z,71.80
2023-08-12T23:00:36.891Z,71.80
2023-08-12T23:04:00.423Z,71.90
2023-08-12T23:07:24.171Z,71.90
2023-08-12T23:10:47.908Z,71.60
2023-08-12T23:14:11.517Z,71.90
2023-08-12T23:17:37.060Z,71.90
2023-08-12T23:21:02.160Z,71.90
2023-08-12T23:24:26.147Z,71.80
2023-08-12T23:27:49.903Z,71.90
2023-08-12T23:31:13.449Z,71.80
2023-08-12T23:34:38.345Z,72.00
2023-08-12T23:38:02.867Z,72.10
2023-08-12T23:41:27.160Z,72.10
2023-08-12T23:44:50.573Z,72.00
2023-08-12T23:48:14.376Z,71.90
2023-08-12T23:51:41.275Z,71.70
2023-08-12T23:55:05.383Z,71.90
2023-08-12T23:58:29.244Z,71.60
